BAW87M EGLL-CYVR
Flight info
| Callsign | BAW87M |
|---|---|
| Flight time | N/A |
| Altitude | 36000 |
| Route | BPK UN601 LESTA UP6 TUPEM DCT NINEB M148 MAGEE DCT DONIB DCT IBROD/M082F360 DCT 6020N DCT 6230N DCT GONEN DCT EMBOK/N0469F360 DCT DUGNO DCT YYQ J539 YYL J540 YVC DCT UOD DCT ANDIE DCT GABIN DCT BOOTH LIONN4 |
| Aircraft | B772/H-SDE2E3FGHIJ5LORVWXY/LB1D1 |
Departure
| Time | 2026-04-30 12:51 |
|---|---|
| Airport | London Heathrow Airport (EGLL) |
Arrival
| Time | N/A |
|---|---|
| Airport | Vancouver International Airport (CYVR) |
| Time | Latitude | Longitude | Altitude | Speed | Heading |
|---|---|---|---|---|---|
| 2026-04-30 12:28 | 51.47182 | -0.48231 | 90 ft | 0 kts | 89° |
| 2026-04-30 12:42 | 51.47182 | -0.48240 | 91 ft | 4 kts | 90° |
| 2026-04-30 12:42 | 51.47182 | -0.48283 | 90 ft | 4 kts | 90° |
| 2026-04-30 12:42 | 51.47181 | -0.48322 | 90 ft | 4 kts | 97° |
| 2026-04-30 12:43 | 51.47185 | -0.48346 | 92 ft | 4 kts | 134° |
| 2026-04-30 12:43 | 51.47207 | -0.48359 | 90 ft | 4 kts | 181° |
| 2026-04-30 12:43 | 51.47226 | -0.48359 | 90 ft | 0 kts | 180° |
| 2026-04-30 12:45 | 51.47212 | -0.48358 | 90 ft | 6 kts | 180° |
| 2026-04-30 12:45 | 51.47186 | -0.48358 | 94 ft | 6 kts | 180° |
| 2026-04-30 12:46 | 51.47142 | -0.48358 | 90 ft | 6 kts | 179° |
| 2026-04-30 12:46 | 51.47099 | -0.48357 | 94 ft | 6 kts | 179° |
| 2026-04-30 12:46 | 51.47056 | -0.48357 | 90 ft | 6 kts | 179° |
| 2026-04-30 12:46 | 51.47013 | -0.48356 | 94 ft | 6 kts | 179° |
| 2026-04-30 12:47 | 51.46971 | -0.48356 | 92 ft | 6 kts | 179° |
| 2026-04-30 12:47 | 51.46928 | -0.48355 | 94 ft | 6 kts | 179° |
| 2026-04-30 12:47 | 51.46885 | -0.48354 | 93 ft | 6 kts | 179° |
| 2026-04-30 12:47 | 51.46842 | -0.48354 | 93 ft | 6 kts | 179° |
| 2026-04-30 12:48 | 51.46799 | -0.48353 | 94 ft | 6 kts | 179° |
| 2026-04-30 12:48 | 51.46757 | -0.48358 | 90 ft | 6 kts | 200° |
| 2026-04-30 12:48 | 51.46742 | -0.48437 | 90 ft | 15 kts | 267° |
| 2026-04-30 12:48 | 51.46742 | -0.48624 | 92 ft | 15 kts | 270° |
| 2026-04-30 12:49 | 51.46695 | -0.48743 | 94 ft | 14 kts | 192° |
| 2026-04-30 12:49 | 51.46601 | -0.48766 | 93 ft | 14 kts | 198° |
| 2026-04-30 12:49 | 51.46517 | -0.48783 | 95 ft | 12 kts | 162° |
| 2026-04-30 12:49 | 51.46478 | -0.48670 | 90 ft | 12 kts | 94° |
| 2026-04-30 12:50 | 51.46478 | -0.48609 | 90 ft | 9 kts | 89° |
| 2026-04-30 12:50 | 51.46479 | -0.48235 | 96 ft | 70 kts | 90° |
| 2026-04-30 12:50 | 51.46483 | -0.47036 | 94 ft | 143 kts | 90° |
| 2026-04-30 12:50 | 51.46485 | -0.45120 | 245 ft | 189 kts | 89° |
| 2026-04-30 12:51 | 51.46516 | -0.42963 | 1052 ft | 193 kts | 83° |
| 2026-04-30 12:51 | 51.46816 | -0.40901 | 2058 ft | 190 kts | 72° |
| 2026-04-30 12:51 | 51.47483 | -0.38989 | 2329 ft | 205 kts | 51° |
| 2026-04-30 12:51 | 51.48441 | -0.37222 | 2555 ft | 216 kts | 56° |
| 2026-04-30 12:52 | 51.49364 | -0.35324 | 3018 ft | 217 kts | 57° |
| 2026-04-30 12:52 | 51.50309 | -0.33410 | 3460 ft | 221 kts | 58° |
| 2026-04-30 12:52 | 51.51278 | -0.31456 | 3850 ft | 227 kts | 57° |
| 2026-04-30 12:52 | 51.52278 | -0.29432 | 4140 ft | 232 kts | 61° |
| 2026-04-30 12:53 | 51.52959 | -0.27090 | 4444 ft | 231 kts | 78° |
| 2026-04-30 12:53 | 51.53433 | -0.24648 | 4955 ft | 231 kts | 77° |
| 2026-04-30 12:53 | 51.53954 | -0.22169 | 5309 ft | 237 kts | 77° |
| 2026-04-30 12:53 | 51.54645 | -0.19743 | 5635 ft | 248 kts | 53° |
| 2026-04-30 12:54 | 51.56146 | -0.18209 | 5972 ft | 274 kts | 20° |
| 2026-04-30 12:54 | 51.58082 | -0.17645 | 6142 ft | 289 kts | 15° |
| 2026-04-30 12:54 | 51.60053 | -0.16950 | 6674 ft | 292 kts | 16° |
| 2026-04-30 12:54 | 51.62074 | -0.16297 | 7262 ft | 298 kts | 16° |
| 2026-04-30 12:55 | 51.64064 | -0.15565 | 7993 ft | 296 kts | 18° |
| 2026-04-30 12:55 | 51.66076 | -0.14746 | 8554 ft | 300 kts | 18° |
| 2026-04-30 12:55 | 51.68116 | -0.13900 | 9164 ft | 304 kts | 18° |
| 2026-04-30 12:55 | 51.70168 | -0.13029 | 9820 ft | 304 kts | 18° |
| 2026-04-30 12:56 | 51.72252 | -0.12131 | 10404 ft | 308 kts | 19° |
| 2026-04-30 12:56 | 51.74314 | -0.11356 | 10871 ft | 311 kts | 6° |
| 2026-04-30 12:56 | 51.76507 | -0.11905 | 11055 ft | 332 kts | 335° |
| 2026-04-30 12:56 | 51.78519 | -0.13777 | 11184 ft | 346 kts | 328° |
| 2026-04-30 12:57 | 51.80651 | -0.15901 | 11333 ft | 366 kts | 329° |
| 2026-04-30 12:57 | 51.82891 | -0.18096 | 11499 ft | 386 kts | 329° |
| 2026-04-30 12:57 | 51.85219 | -0.20355 | 11784 ft | 401 kts | 329° |
| 2026-04-30 12:57 | 51.87640 | -0.22687 | 12319 ft | 408 kts | 329° |
| 2026-04-30 12:58 | 51.90101 | -0.25047 | 12955 ft | 413 kts | 329° |
| 2026-04-30 12:58 | 51.92587 | -0.27424 | 13547 ft | 417 kts | 329° |
| 2026-04-30 12:58 | 51.95104 | -0.29833 | 14153 ft | 421 kts | 329° |
| 2026-04-30 12:58 | 51.97612 | -0.32236 | 14728 ft | 425 kts | 329° |
| 2026-04-30 12:59 | 52.00174 | -0.34695 | 15303 ft | 429 kts | 329° |
| 2026-04-30 12:59 | 52.02764 | -0.37179 | 15872 ft | 433 kts | 329° |
| 2026-04-30 12:59 | 52.05370 | -0.39683 | 16412 ft | 436 kts | 329° |
| 2026-04-30 12:59 | 52.08006 | -0.42219 | 16936 ft | 440 kts | 329° |
| 2026-04-30 13:00 | 52.10618 | -0.44743 | 17403 ft | 444 kts | 329° |
| 2026-04-30 13:00 | 52.13281 | -0.47326 | 17889 ft | 447 kts | 329° |
| 2026-04-30 13:00 | 52.15966 | -0.49934 | 18379 ft | 450 kts | 329° |
| 2026-04-30 13:00 | 52.18674 | -0.52571 | 18859 ft | 453 kts | 329° |
| 2026-04-30 13:01 | 52.21391 | -0.55215 | 19307 ft | 456 kts | 329° |
| 2026-04-30 13:01 | 52.24096 | -0.57853 | 19713 ft | 459 kts | 329° |
| 2026-04-30 13:01 | 52.26854 | -0.60544 | 20121 ft | 462 kts | 329° |
| 2026-04-30 13:01 | 52.29622 | -0.63249 | 20573 ft | 464 kts | 329° |
| 2026-04-30 13:02 | 52.32408 | -0.65975 | 20975 ft | 467 kts | 329° |
| 2026-04-30 13:02 | 52.35205 | -0.68717 | 21375 ft | 469 kts | 329° |
| 2026-04-30 13:02 | 52.38014 | -0.71471 | 21754 ft | 472 kts | 329° |
| 2026-04-30 13:02 | 52.40842 | -0.74250 | 22138 ft | 475 kts | 329° |
| 2026-04-30 13:03 | 52.43686 | -0.77049 | 22477 ft | 478 kts | 329° |
| 2026-04-30 13:03 | 52.46514 | -0.79839 | 22840 ft | 480 kts | 329° |
| 2026-04-30 13:03 | 52.49385 | -0.82676 | 23210 ft | 482 kts | 329° |
| 2026-04-30 13:03 | 52.52266 | -0.85529 | 23569 ft | 485 kts | 329° |
| 2026-04-30 13:04 | 52.55170 | -0.88408 | 23893 ft | 488 kts | 329° |
| 2026-04-30 13:04 | 52.58082 | -0.91297 | 24227 ft | 490 kts | 329° |
| 2026-04-30 13:04 | 52.61014 | -0.94209 | 24571 ft | 492 kts | 329° |
| 2026-04-30 13:04 | 52.63959 | -0.97132 | 24888 ft | 495 kts | 329° |
| 2026-04-30 13:05 | 52.66921 | -1.00064 | 25202 ft | 497 kts | 329° |
| 2026-04-30 13:05 | 52.69892 | -1.03009 | 25508 ft | 499 kts | 329° |
| 2026-04-30 13:05 | 52.72854 | -1.06050 | 25794 ft | 502 kts | 326° |
| 2026-04-30 13:06 | 52.78244 | -1.13406 | 26383 ft | 504 kts | 315° |
| 2026-04-30 13:06 | 52.80770 | -1.17453 | 26656 ft | 507 kts | 314° |
| 2026-04-30 13:06 | 52.83304 | -1.21521 | 26953 ft | 509 kts | 314° |
| 2026-04-30 13:06 | 52.85860 | -1.25603 | 27258 ft | 510 kts | 315° |
| 2026-04-30 13:07 | 52.88428 | -1.29684 | 27523 ft | 512 kts | 315° |
| 2026-04-30 13:07 | 52.90984 | -1.33721 | 27770 ft | 514 kts | 315° |
| 2026-04-30 13:07 | 52.93581 | -1.37817 | 28026 ft | 516 kts | 315° |
| 2026-04-30 13:07 | 52.96196 | -1.41948 | 28260 ft | 518 kts | 315° |
| 2026-04-30 13:08 | 52.98817 | -1.46100 | 28496 ft | 520 kts | 315° |
| 2026-04-30 13:08 | 53.01433 | -1.50252 | 28819 ft | 519 kts | 314° |
| 2026-04-30 13:08 | 53.04032 | -1.54386 | 29249 ft | 516 kts | 314° |
| 2026-04-30 13:08 | 53.06596 | -1.58473 | 29561 ft | 516 kts | 314° |
| 2026-04-30 13:09 | 53.09190 | -1.62619 | 29786 ft | 518 kts | 314° |
| 2026-04-30 13:09 | 53.11796 | -1.66805 | 29931 ft | 521 kts | 314° |
| 2026-04-30 13:09 | 53.14414 | -1.71024 | 30115 ft | 523 kts | 314° |
| 2026-04-30 13:09 | 53.17029 | -1.75243 | 30350 ft | 523 kts | 314° |
| 2026-04-30 13:10 | 53.19649 | -1.79475 | 30649 ft | 522 kts | 314° |
| 2026-04-30 13:10 | 53.22224 | -1.83743 | 30959 ft | 520 kts | 310° |
| 2026-04-30 13:10 | 53.24549 | -1.88247 | 31260 ft | 517 kts | 305° |
| 2026-04-30 13:10 | 53.26601 | -1.93150 | 31546 ft | 513 kts | 298° |
| 2026-04-30 13:11 | 53.28487 | -1.98212 | 31797 ft | 512 kts | 298° |
| 2026-04-30 13:11 | 53.30366 | -2.03280 | 32076 ft | 511 kts | 298° |
| 2026-04-30 13:11 | 53.32244 | -2.08321 | 32402 ft | 509 kts | 298° |
| 2026-04-30 13:11 | 53.34125 | -2.13339 | 32638 ft | 509 kts | 299° |
| 2026-04-30 13:12 | 53.35990 | -2.18291 | 32852 ft | 509 kts | 299° |
| 2026-04-30 13:12 | 53.37886 | -2.23317 | 33070 ft | 509 kts | 299° |
| 2026-04-30 13:12 | 53.39783 | -2.28342 | 33291 ft | 508 kts | 299° |
| 2026-04-30 13:13 | 53.43551 | -2.38370 | 33752 ft | 507 kts | 299° |
| 2026-04-30 13:13 | 53.45432 | -2.43390 | 33971 ft | 507 kts | 299° |
| 2026-04-30 13:13 | 53.49148 | -2.53349 | 34467 ft | 504 kts | 299° |
| 2026-04-30 13:14 | 53.51006 | -2.58345 | 34692 ft | 504 kts | 299° |
| 2026-04-30 13:14 | 53.52859 | -2.63327 | 34911 ft | 503 kts | 299° |
| 2026-04-30 13:14 | 53.56564 | -2.73323 | 35290 ft | 502 kts | 299° |
| 2026-04-30 13:15 | 53.58404 | -2.78311 | 35520 ft | 500 kts | 299° |
| 2026-04-30 13:15 | 53.62055 | -2.88255 | 35944 ft | 498 kts | 299° |
| 2026-04-30 13:15 | 53.63852 | -2.93167 | 36082 ft | 498 kts | 299° |
| 2026-04-30 13:16 | 53.65676 | -2.98169 | 36149 ft | 500 kts | 299° |
| 2026-04-30 13:16 | 53.69310 | -3.08149 | 36208 ft | 502 kts | 299° |
| 2026-04-30 13:17 | 53.74757 | -3.23163 | 36204 ft | 495 kts | 298° |
| 2026-04-30 13:18 | 53.80120 | -3.37976 | 36206 ft | 490 kts | 298° |
| 2026-04-30 13:18 | 53.85395 | -3.52684 | 36216 ft | 488 kts | 298° |
| 2026-04-30 13:19 | 53.88861 | -3.62599 | 36208 ft | 489 kts | 297° |
| 2026-04-30 13:19 | 53.92318 | -3.72554 | 36207 ft | 491 kts | 297° |
| 2026-04-30 13:20 | 53.95793 | -3.82575 | 36208 ft | 492 kts | 297° |
| 2026-04-30 13:20 | 53.99246 | -3.92556 | 36207 ft | 494 kts | 297° |
| 2026-04-30 13:21 | 54.02725 | -4.02658 | 36202 ft | 495 kts | 297° |